Time;durP1;ratioP1;P1;durP2;ratioP2;P2;SDS_P1;SDS_P2;PMS_P1;PMS_P2;Temp;Humidity;BMP_temperature;BMP_pressure;BME280_temperature;BME280_humidity;BME280_pressure;Samples;Min_cycle;Max_cycle;Signal;HPM_P1;HPM_P2
2021/11/10 00:00:23;;;;;;;26.98;18.08;;;;;;;6.34;59.42;101765.84;4469581;32;33822;-53
2021/11/10 00:02:51;;;;;;;26.92;16.98;;;;;;;6.33;59.53;101758.87;4469391;32;34257;-60
2021/11/10 00:05:20;;;;;;;25.55;16.65;;;;;;;6.31;59.64;101755.34;4468556;32;33715;-53
2021/11/10 00:07:48;;;;;;;27.58;17.23;;;;;;;6.28;59.76;101760.34;4469328;32;34648;-52
2021/11/10 00:10:16;;;;;;;28.80;17.30;;;;;;;6.29;59.67;101756.97;4469580;32;34983;-55
2021/11/10 00:12:44;;;;;;;26.27;16.98;;;;;;;6.14;60.03;101755.41;4465642;32;33568;-49
2021/11/10 00:15:13;;;;;;;29.37;17.60;;;;;;;6.28;59.72;101753.50;4465607;32;33994;-48
2021/11/10 00:17:40;;;;;;;26.52;16.52;;;;;;;6.08;60.22;101755.16;4465832;32;35783;-51
2021/11/10 00:20:10;;;;;;;29.52;17.90;;;;;;;6.23;59.41;101748.94;4464398;32;34350;-49
2021/11/10 00:22:38;;;;;;;27.60;17.80;;;;;;;6.19;59.48;101753.06;4465342;32;34626;-49
2021/11/10 00:25:07;;;;;;;28.65;18.10;;;;;;;6.19;59.40;101747.88;4465461;32;33745;-48
2021/11/10 00:27:34;;;;;;;27.83;18.77;;;;;;;6.14;59.51;101745.09;4465339;32;34686;-52
2021/11/10 00:30:03;;;;;;;31.52;18.33;;;;;;;6.10;59.78;101747.44;4465081;32;34467;-48
2021/11/10 00:32:30;;;;;;;31.52;19.55;;;;;;;6.04;59.76;101758.38;4464342;32;33758;-50
2021/11/10 00:34:58;;;;;;;32.10;18.30;;;;;;;6.16;59.30;101746.88;4465541;32;34267;-49
2021/11/10 00:37:25;;;;;;;34.75;18.73;;;;;;;6.04;59.45;101747.12;4465359;32;36003;-48
2021/11/10 00:39:53;;;;;;;31.75;19.42;;;;;;;6.08;59.26;101744.81;4465433;32;34596;-49
2021/11/10 00:42:20;;;;;;;31.08;18.40;;;;;;;5.86;59.98;101757.47;4465508;32;33816;-50
2021/11/10 00:44:48;;;;;;;30.27;18.98;;;;;;;5.93;59.55;101751.81;4467540;32;34730;-50
2021/11/10 00:47:15;;;;;;;30.52;19.70;;;;;;;5.48;60.72;101747.78;4467290;32;34858;-51
2021/11/10 00:49:43;;;;;;;31.55;18.60;;;;;;;5.77;60.01;101746.66;4467547;32;34358;-49
2021/11/10 00:52:10;;;;;;;29.73;18.52;;;;;;;5.98;59.26;101752.03;4466950;32;33331;-50
2021/11/10 00:54:38;;;;;;;28.42;18.58;;;;;;;5.71;59.78;101746.34;4466044;32;34733;-51
2021/11/10 00:57:06;;;;;;;30.33;19.83;;;;;;;5.66;60.08;101745.22;4466016;32;35820;-50
2021/11/10 00:59:33;;;;;;;31.48;19.92;;;;;;;5.70;59.84;101747.16;4465918;32;33984;-50
2021/11/10 01:02:01;;;;;;;31.48;19.52;;;;;;;5.84;59.51;101743.59;4467506;32;33634;-51
2021/11/10 01:04:29;;;;;;;28.58;18.45;;;;;;;5.80;59.38;101751.09;4467280;32;33931;-50
2021/11/10 01:06:58;;;;;;;36.25;19.77;;;;;;;5.80;59.35;101748.50;4467058;32;34611;-51
2021/11/10 01:09:25;;;;;;;33.28;18.48;;;;;;;5.74;59.59;101749.09;4465595;32;34307;-49
2021/11/10 01:11:53;;;;;;;27.80;19.02;;;;;;;5.68;59.55;101740.16;4467138;32;33336;-50
2021/11/10 01:14:21;;;;;;;30.75;19.10;;;;;;;5.79;59.27;101741.56;4467005;32;34125;-49
2021/11/10 01:16:49;;;;;;;29.90;19.25;;;;;;;5.77;59.28;101748.34;4466813;32;35276;-49
2021/11/10 01:19:17;;;;;;;31.85;19.00;;;;;;;5.78;59.12;101742.34;4467198;32;35212;-50
2021/11/10 01:21:44;;;;;;;32.03;19.23;;;;;;;5.75;59.48;101744.81;4467107;32;33770;-51
2021/11/10 01:24:12;;;;;;;29.80;18.80;;;;;;;5.68;59.55;101745.31;4466804;32;34740;-49
2021/11/10 01:26:40;;;;;;;32.03;18.77;;;;;;;5.64;59.14;101739.09;4465528;32;35750;-50
2021/11/10 01:29:10;;;;;;;29.33;18.20;;;;;;;5.56;59.43;101730.09;4466416;32;34994;-49
2021/11/10 01:31:37;;;;;;;27.60;18.15;;;;;;;5.61;59.22;101728.63;4466911;32;33359;-49
2021/11/10 01:34:08;;;;;;;32.78;20.50;;;;;;;5.63;59.03;101731.28;4466624;32;34345;-50
2021/11/10 01:36:37;;;;;;;32.10;19.42;;;;;;;5.59;59.10;101727.66;4466683;32;34717;-52
2021/11/10 01:39:07;;;;;;;30.48;18.65;;;;;;;5.46;59.58;101715.84;4467146;32;34196;-50
2021/11/10 01:41:43;;;;;;;34.58;19.33;;;;;;;5.54;59.27;101723.09;4466413;32;33390;-49
2021/11/10 01:44:20;;;;;;;30.98;20.25;;;;;;;5.51;59.27;101721.25;4466865;32;34096;-50
2021/11/10 01:46:49;;;;;;;29.42;18.75;;;;;;;5.38;59.60;101718.84;4466786;32;34699;-49
2021/11/10 01:49:17;;;;;;;29.55;18.77;;;;;;;5.44;59.65;101708.84;4467013;32;34400;-51
2021/11/10 01:51:48;;;;;;;32.58;19.08;;;;;;;5.37;59.75;101709.34;4466821;32;33547;-50
2021/11/10 01:54:17;;;;;;;;;;;;;;;5.41;59.65;101699.25;4467178;32;33867;-48
2021/11/10 01:56:45;;;;;;;29.12;18.73;;;;;;;5.48;59.25;101691.00;4465950;32;35105;-49
2021/11/10 01:59:35;;;;;;;32.17;19.15;;;;;;;5.40;59.60;101697.47;4465905;32;34281;-49
2021/11/10 02:02:06;;;;;;;33.10;18.83;;;;;;;5.54;59.06;101685.25;4465821;32;34211;-50
2021/11/10 02:04:37;;;;;;;32.40;20.12;;;;;;;5.18;60.18;101683.41;4466372;32;34018;-49
2021/11/10 02:07:05;;;;;;;32.42;19.85;;;;;;;5.10;60.42;101679.53;4466004;32;35279;-50
2021/11/10 02:09:33;;;;;;;29.17;18.02;;;;;;;5.27;59.94;101673.56;4465861;32;34264;-51
2021/11/10 02:12:05;;;;;;;;;;;;;;;5.25;59.85;101677.75;4466152;32;34171;-49
2021/11/10 02:14:33;;;;;;;30.80;18.00;;;;;;;5.20;59.95;101679.22;4466048;32;34432;-49
2021/11/10 02:17:01;;;;;;;32.10;19.17;;;;;;;5.40;59.60;101678.50;4465855;32;35749;-49
2021/11/10 02:19:30;;;;;;;25.35;18.10;;;;;;;5.22;60.10;101682.75;4464544;32;34396;-50
2021/11/10 02:22:01;;;;;;;33.88;18.77;;;;;;;5.18;60.17;101673.09;4465565;32;33392;-50
2021/11/10 02:24:31;;;;;;;28.40;17.00;;;;;;;5.23;59.88;101677.66;4465331;32;34340;-51
2021/11/10 02:27:00;;;;;;;31.52;18.33;;;;;;;5.24;59.74;101673.41;4465576;32;35879;-49
2021/11/10 02:29:30;;;;;;;30.92;17.90;;;;;;;5.26;59.70;101676.94;4465201;32;34437;-49
2021/11/10 02:31:58;;;;;;;30.23;18.05;;;;;;;5.26;59.63;101682.97;4465277;32;34721;-49
2021/11/10 02:34:26;;;;;;;31.75;18.70;;;;;;;5.15;59.89;101685.84;4465323;32;33785;-49
2021/11/10 02:36:54;;;;;;;30.45;19.02;;;;;;;5.18;59.89;101689.44;4465452;32;34530;-49
2021/11/10 02:39:23;;;;;;;33.67;20.17;;;;;;;5.17;59.97;101687.69;4465136;32;34589;-50
2021/11/10 02:41:50;;;;;;;32.53;20.45;;;;;;;5.15;60.07;101694.47;4465328;32;34320;-52
2021/11/10 02:44:20;;;;;;;30.73;18.67;;;;;;;5.11;60.64;101686.50;4464059;32;34254;-49
2021/11/10 02:46:50;;;;;;;29.52;18.37;;;;;;;5.17;60.86;101690.25;4465357;32;34691;-49
2021/11/10 02:49:20;;;;;;;29.85;18.77;;;;;;;5.19;60.84;101686.06;4465194;32;34880;-50
2021/11/10 02:52:09;;;;;;;32.63;19.83;;;;;;;5.38;60.28;101686.19;4465073;32;33483;-49
2021/11/10 02:54:41;;;;;;;35.00;19.58;;;;;;;5.25;60.32;101690.66;4465546;32;34244;-51
2021/11/10 02:57:09;;;;;;;29.40;18.45;;;;;;;5.32;59.83;101682.41;4464531;32;34861;-50
2021/11/10 02:59:36;;;;;;;34.45;20.45;;;;;;;5.26;59.61;101676.94;4464357;32;33999;-56
2021/11/10 03:02:06;;;;;;;34.13;19.62;;;;;;;5.29;59.32;101678.00;4465679;32;34538;-54
2021/11/10 03:04:42;;;;;;;30.48;19.05;;;;;;;5.18;59.39;101680.84;4465672;32;34530;-53
2021/11/10 03:07:11;;;;;;;36.30;19.98;;;;;;;5.18;59.48;101676.53;4465939;32;35500;-49
2021/11/10 03:09:39;;;;;;;31.50;17.80;;;;;;;5.24;59.25;101682.03;4465693;32;34233;-50
2021/11/10 03:12:08;;;;;;;32.88;19.60;;;;;;;5.24;59.49;101678.56;4466055;32;33318;-50
2021/11/10 03:14:38;;;;;;;30.25;18.52;;;;;;;5.27;59.37;101678.72;4466151;32;33888;-51
2021/11/10 03:17:08;;;;;;;30.35;18.65;;;;;;;5.13;60.03;101678.03;4465840;32;34950;-52
2021/11/10 03:19:37;;;;;;;35.88;20.02;;;;;;;5.11;60.04;101684.78;4466020;32;35273;-53
2021/11/10 03:22:08;;;;;;;32.67;19.58;;;;;;;5.12;59.93;101680.50;4465989;32;34346;-50
2021/11/10 03:24:36;;;;;;;29.92;18.40;;;;;;;5.20;59.57;101681.78;4464600;32;33925;-50
2021/11/10 03:27:04;;;;;;;32.67;19.20;;;;;;;5.11;59.72;101686.50;4466185;32;34936;-50
2021/11/10 03:29:34;;;;;;;29.92;18.58;;;;;;;5.20;59.70;101679.22;4465523;32;35094;-51
2021/11/10 03:32:04;;;;;;;34.63;20.00;;;;;;;5.18;60.01;101688.56;4467469;32;33504;-50
2021/11/10 03:34:32;;;;;;;31.83;19.37;;;;;;;5.08;60.59;101686.31;4468370;32;34694;-50
2021/11/10 03:37:00;;;;;;;37.88;22.27;;;;;;;5.00;60.42;101687.59;4467239;32;34698;-49
2021/11/10 03:39:29;;;;;;;37.65;22.15;;;;;;;5.16;59.66;101679.88;4468416;32;35285;-50
2021/11/10 03:41:56;;;;;;;37.83;20.42;;;;;;;5.00;60.02;101679.88;4466808;32;33847;-54
2021/11/10 03:44:24;;;;;;;31.70;21.00;;;;;;;5.15;59.60;101678.97;4468470;32;34316;-49
2021/11/10 03:46:52;;;;;;;36.75;21.95;;;;;;;5.06;59.87;101677.63;4468322;32;34671;-49
2021/11/10 03:49:21;;;;;;;32.58;20.35;;;;;;;5.11;59.82;101676.19;4468188;32;34907;-50
2021/11/10 03:51:49;;;;;;;40.58;22.73;;;;;;;5.04;60.09;101677.53;4467955;32;33751;-50
2021/11/10 03:54:16;;;;;;;35.08;21.65;;;;;;;5.17;59.63;101677.37;4467148;32;34084;-50
2021/11/10 03:56:45;;;;;;;33.78;21.75;;;;;;;5.17;59.46;101672.19;4468168;32;34855;-51
2021/11/10 03:59:13;;;;;;;44.08;23.55;;;;;;;5.14;60.03;101676.31;4468323;32;35094;-50
2021/11/10 04:01:41;;;;;;;44.83;23.48;;;;;;;5.22;63.54;101669.84;4468295;32;34243;-53
2021/11/10 04:04:10;;;;;;;36.22;21.62;;;;;;;5.38;63.41;101668.13;4468527;32;34154;-51
2021/11/10 04:06:39;;;;;;;37.28;21.50;;;;;;;5.51;63.62;101672.22;4467966;32;35646;-49
2021/11/10 04:09:07;;;;;;;35.65;20.35;;;;;;;5.69;63.46;101670.50;4468235;32;34352;-53
2021/11/10 04:11:35;;;;;;;37.15;21.92;;;;;;;5.70;62.89;101664.56;4468043;32;33355;-52
2021/11/10 04:14:06;;;;;;;41.63;23.55;;;;;;;5.82;62.60;101665.16;4468229;32;33886;-50
2021/11/10 04:16:35;;;;;;;42.38;24.52;;;;;;;5.96;62.61;101664.16;4467785;32;35773;-51
2021/11/10 04:19:04;;;;;;;34.33;21.15;;;;;;;6.08;63.74;101651.81;4467907;32;35146;-51
2021/11/10 04:21:32;;;;;;;36.30;20.67;;;;;;;6.13;63.46;101655.47;4468086;32;34127;-51
2021/11/10 04:24:02;;;;;;;38.78;22.90;;;;;;;6.25;62.96;101654.28;4467586;32;34538;-49
2021/11/10 04:26:33;;;;;;;37.03;21.70;;;;;;;6.34;63.32;101659.88;4467782;32;34903;-50
2021/11/10 04:29:02;;;;;;;35.20;20.80;;;;;;;6.41;63.00;101659.34;4467547;32;35055;-51
2021/11/10 04:31:30;;;;;;;36.70;20.10;;;;;;;6.50;62.67;101663.22;4467289;32;33659;-50
2021/11/10 04:33:59;;;;;;;38.05;22.42;;;;;;;6.61;62.19;101661.09;4467542;32;34706;-49
2021/11/10 04:36:30;;;;;;;39.35;23.10;;;;;;;6.60;61.94;101654.19;4466335;32;35550;-50
2021/11/10 04:38:57;;;;;;;42.30;22.65;;;;;;;6.50;62.22;101662.34;4467330;32;35192;-49
2021/11/10 04:41:26;;;;;;;44.85;22.92;;;;;;;6.66;61.79;101660.50;4467761;32;34587;-51
2021/11/10 04:43:54;;;;;;;38.35;21.77;;;;;;;6.57;61.75;101648.88;4466636;32;34682;-49
2021/11/10 04:46:29;;;;;;;45.10;23.87;;;;;;;6.64;61.25;101650.91;4467527;32;34830;-49
2021/11/10 04:48:58;;;;;;;43.83;23.45;;;;;;;6.66;60.59;101639.81;4467858;32;35250;-50
2021/11/10 04:51:28;;;;;;;54.92;29.67;;;;;;;6.50;60.87;101642.53;4467588;32;33850;-50
2021/11/10 04:53:57;;;;;;;58.80;30.90;;;;;;;6.63;60.62;101629.34;4467631;32;33911;-50
2021/11/10 04:56:25;;;;;;;62.62;29.20;;;;;;;6.62;60.90;101625.00;4467571;32;35149;-49
2021/11/10 04:58:53;;;;;;;52.13;27.92;;;;;;;6.55;61.95;101629.81;4453564;32;34411;-50
2021/11/10 05:01:27;;;;;;;59.67;28.60;;;;;;;6.78;61.84;101629.13;4467532;32;33619;-51
2021/11/10 05:03:56;;;;;;;52.08;27.20;;;;;;;6.61;62.21;101625.81;4467537;32;34760;-49
2021/11/10 05:06:25;;;;;;;53.67;26.35;;;;;;;6.63;62.29;101624.16;4467557;32;35772;-50
2021/11/10 05:08:53;;;;;;;48.95;25.33;;;;;;;6.71;62.66;101627.09;4466356;32;34385;-50
2021/11/10 05:11:21;;;;;;;55.45;26.35;;;;;;;6.73;63.15;101628.03;4466989;32;34238;-49
2021/11/10 05:13:50;;;;;;;55.17;26.37;;;;;;;6.84;63.11;101624.25;4466188;32;34021;-49
2021/11/10 05:16:19;;;;;;;47.80;25.08;;;;;;;6.84;63.10;101621.66;4467491;32;34698;-50
2021/11/10 05:18:47;;;;;;;48.55;25.52;;;;;;;7.06;62.06;101623.47;4466129;32;34251;-50
2021/11/10 05:21:15;;;;;;;40.38;23.38;;;;;;;7.00;62.12;101625.78;4467263;32;34287;-49
2021/11/10 05:23:43;;;;;;;40.03;23.83;;;;;;;6.94;62.22;101618.62;4467544;32;33648;-49
2021/11/10 05:26:11;;;;;;;48.65;25.33;;;;;;;7.08;61.75;101620.13;4467172;32;35021;-50
2021/11/10 05:28:38;;;;;;;43.75;23.58;;;;;;;6.95;62.42;101619.50;4465908;32;35176;-50
2021/11/10 05:31:06;;;;;;;38.05;21.40;;;;;;;6.98;62.42;101620.53;4467035;32;33505;-49
2021/11/10 05:33:34;;;;;;;41.50;23.95;;;;;;;7.00;62.57;101626.66;4467204;32;33652;-50
2021/11/10 05:36:01;;;;;;;41.45;22.20;;;;;;;7.12;62.20;101632.38;4467291;32;34741;-49
2021/11/10 05:38:29;;;;;;;45.40;23.50;;;;;;;7.06;62.41;101621.75;4466195;32;34715;-49
2021/11/10 05:40:57;;;;;;;38.53;23.05;;;;;;;7.11;62.52;101625.41;4466958;32;34381;-54
2021/11/10 05:43:24;;;;;;;41.28;22.85;;;;;;;7.12;62.65;101634.06;4466868;32;34508;-50
2021/11/10 05:45:52;;;;;;;43.90;24.40;;;;;;;7.18;62.40;101634.34;4467217;32;35725;-51
2021/11/10 05:48:20;;;;;;;45.85;23.90;;;;;;;7.35;61.75;101631.62;4466981;32;35022;-49
2021/11/10 05:50:47;;;;;;;45.83;24.15;;;;;;;7.21;62.45;101634.44;4466550;32;33636;-49
2021/11/10 05:53:16;;;;;;;41.00;23.75;;;;;;;7.27;62.37;101645.06;4467499;32;34684;-52
2021/11/10 05:55:44;;;;;;;43.03;22.67;;;;;;;7.22;62.82;101644.88;4465718;32;35092;-52
2021/11/10 05:58:11;;;;;;;39.97;22.70;;;;;;;7.27;62.73;101645.06;4467598;32;34447;-51
2021/11/10 06:00:39;;;;;;;34.65;20.67;;;;;;;7.27;62.84;101643.34;4467286;32;33336;-50
2021/11/10 06:03:07;;;;;;;38.00;21.40;;;;;;;7.36;62.69;101643.75;4466661;32;34108;-50
2021/11/10 06:05:34;;;;;;;38.33;21.73;;;;;;;7.41;62.56;101652.59;4465248;32;34854;-54
2021/11/10 06:08:02;;;;;;;38.20;21.75;;;;;;;7.56;62.09;101654.06;4466264;32;34287;-51
2021/11/10 06:10:29;;;;;;;35.80;21.58;;;;;;;7.55;61.64;101657.44;4467177;32;33624;-51
2021/11/10 06:12:57;;;;;;;37.25;21.87;;;;;;;7.44;61.72;101649.25;4466131;32;34374;-52
2021/11/10 06:15:27;;;;;;;38.55;22.73;;;;;;;7.44;61.96;101651.84;4465575;32;35947;-51
2021/11/10 06:17:54;;;;;;;35.00;20.77;;;;;;;7.50;62.01;101652.97;4465911;32;34406;-50
2021/11/10 06:20:22;;;;;;;35.22;21.23;;;;;;;7.59;61.96;101654.16;4466047;32;34458;-50
2021/11/10 06:22:49;;;;;;;34.60;21.37;;;;;;;7.68;61.90;101650.22;4465917;32;35152;-51
2021/11/10 06:25:19;;;;;;;36.33;20.60;;;;;;;7.70;62.06;101655.50;4465479;32;35022;-53
2021/11/10 06:27:47;;;;;;;39.40;23.92;;;;;;;7.76;62.05;101650.53;4466183;32;34657;-50
2021/11/10 06:30:15;;;;;;;38.92;23.17;;;;;;;7.90;61.63;101644.22;4466229;32;34364;-51
2021/11/10 06:32:45;;;;;;;40.92;25.75;;;;;;;7.92;61.60;101652.91;4465605;32;33917;-52
2021/11/10 06:35:13;;;;;;;38.65;23.70;;;;;;;7.97;61.54;101654.00;4463570;32;35029;-49
2021/11/10 06:37:40;;;;;;;40.10;24.40;;;;;;;8.03;61.59;101642.16;4465535;32;34982;-51
2021/11/10 06:40:09;;;;;;;38.00;23.62;;;;;;;8.08;61.59;101651.00;4465824;32;33338;-56
2021/11/10 06:42:37;;;;;;;38.78;23.85;;;;;;;8.19;61.34;101659.19;4466691;32;34269;-49
2021/11/10 06:45:05;;;;;;;35.33;23.40;;;;;;;8.27;61.31;101654.34;4466193;32;34750;-53
2021/11/10 06:47:34;;;;;;;34.03;22.70;;;;;;;8.23;61.59;101663.66;4467563;32;34289;-52
2021/11/10 06:50:03;;;;;;;36.65;22.60;;;;;;;8.28;61.60;101659.56;4466673;32;33655;-50
2021/11/10 06:52:30;;;;;;;37.25;22.13;;;;;;;8.41;62.25;101667.00;4466681;32;33785;-56
2021/11/10 06:54:58;;;;;;;37.85;23.80;;;;;;;8.66;60.87;101669.69;4466954;32;34997;-51
2021/11/10 06:57:25;;;;;;;35.20;21.12;;;;;;;8.56;61.28;101666.66;4466229;32;34203;-56
2021/11/10 06:59:53;;;;;;;37.50;23.48;;;;;;;8.60;61.27;101669.47;4466098;32;34244;-57
2021/11/10 07:02:21;;;;;;;38.30;24.27;;;;;;;8.74;60.92;101667.37;4466842;32;34731;-56
2021/11/10 07:04:49;;;;;;;37.80;23.90;;;;;;;8.79;60.98;101665.84;4466161;32;34822;-54
2021/11/10 07:07:16;;;;;;;34.75;22.80;;;;;;;8.77;61.14;101670.09;4468300;32;34754;-56
2021/11/10 07:09:44;;;;;;;34.80;22.02;;;;;;;8.99;60.71;101674.31;4468796;32;34525;-55
2021/11/10 07:12:11;;;;;;;37.00;22.67;;;;;;;9.01;60.70;101673.53;4469084;32;33896;-52
2021/11/10 07:14:39;;;;;;;40.60;24.52;;;;;;;9.07;60.67;101666.00;4469925;32;35056;-53
2021/11/10 07:17:07;;;;;;;29.20;18.42;;;;;;;9.08;60.65;101664.28;4465809;32;34301;-54
2021/11/10 07:19:34;;;;;;;35.15;23.55;;;;;;;9.42;70.29;101672.38;4469553;32;34401;-54
2021/11/10 07:22:03;;;;;;;36.55;22.75;;;;;;;9.70;66.67;101663.81;4467955;32;33676;-55
2021/11/10 07:24:31;;;;;;;37.78;22.48;;;;;;;9.68;60.91;101661.16;4469335;32;35213;-52
2021/11/10 07:26:59;;;;;;;32.55;22.73;;;;;;;9.66;60.12;101657.63;4469240;32;34556;-56
2021/11/10 07:29:28;;;;;;;34.67;22.90;;;;;;;9.73;59.79;101659.59;4469005;32;33449;-52
2021/11/10 07:31:56;;;;;;;36.55;22.35;;;;;;;9.82;59.63;101657.28;4469292;32;33736;-54
2021/11/10 07:34:24;;;;;;;34.78;23.35;;;;;;;9.84;59.46;101658.19;4469017;32;35191;-55
2021/11/10 07:36:52;;;;;;;37.65;24.25;;;;;;;9.94;59.24;101655.06;4468686;32;34129;-52
2021/11/10 07:39:19;;;;;;;39.42;25.02;;;;;;;9.98;59.13;101658.66;4467773;32;33446;-53
2021/11/10 07:41:49;;;;;;;43.67;24.92;;;;;;;9.85;59.44;101666.88;4469045;32;34205;-51
2021/11/10 07:44:17;;;;;;;45.03;24.92;;;;;;;9.81;59.73;101678.91;4468990;32;34714;-51
2021/11/10 07:46:51;;;;;;;43.85;25.60;;;;;;;9.71;59.89;101673.34;4469070;32;35182;-52
2021/11/10 07:49:20;;;;;;;43.05;24.55;;;;;;;9.89;59.52;101681.78;4468798;32;34318;-51
2021/11/10 07:51:48;;;;;;;32.38;21.90;;;;;;;9.90;59.43;101683.50;4468348;32;34812;-50
2021/11/10 07:54:16;;;;;;;37.45;23.60;;;;;;;10.18;62.06;101679.28;4467745;32;34660;-52
2021/11/10 07:56:43;;;;;;;38.80;25.52;;;;;;;10.30;59.23;101681.37;4469353;32;35601;-53
2021/11/10 07:59:11;;;;;;;36.72;24.25;;;;;;;10.40;58.68;101678.22;4468986;32;33589;-50
2021/11/10 08:01:38;;;;;;;34.58;23.15;;;;;;;10.54;58.33;101684.72;4468910;32;34737;-52
2021/11/10 08:04:06;;;;;;;35.70;24.40;;;;;;;10.35;59.00;101684.09;4469005;32;35760;-55
2021/11/10 08:06:34;;;;;;;33.75;23.10;;;;;;;10.32;59.36;101684.87;4469057;32;34899;-51
2021/11/10 08:09:01;;;;;;;34.35;22.45;;;;;;;10.38;59.86;101681.59;4468386;32;33364;-52
2021/11/10 08:11:29;;;;;;;35.17;23.00;;;;;;;10.38;60.12;101679.00;4469093;32;34624;-50
2021/11/10 08:13:57;;;;;;;34.45;21.67;;;;;;;10.45;60.23;101683.53;4469342;32;34962;-50
2021/11/10 08:16:25;;;;;;;36.30;22.87;;;;;;;10.59;60.08;101677.91;4469125;32;34423;-51
2021/11/10 08:18:53;;;;;;;35.50;22.33;;;;;;;10.67;59.86;101685.97;4467146;32;34173;-52
2021/11/10 08:21:21;;;;;;;35.33;23.15;;;;;;;10.81;59.36;101679.44;4468931;32;34703;-52
2021/11/10 08:23:49;;;;;;;38.80;24.27;;;;;;;11.17;58.35;101674.34;4469073;32;34814;-53
2021/11/10 08:26:17;;;;;;;36.75;24.40;;;;;;;11.06;58.55;101674.06;4467925;32;34414;-50
2021/11/10 08:28:45;;;;;;;37.15;25.30;;;;;;;11.18;58.38;101679.59;4469161;32;33549;-50
2021/11/10 08:31:12;;;;;;;31.55;23.35;;;;;;;11.27;58.18;101679.84;4469151;32;34840;-51
2021/11/10 08:33:40;;;;;;;35.20;23.80;;;;;;;11.46;57.08;101675.97;4469246;32;34942;-52
2021/11/10 08:36:08;;;;;;;33.67;22.58;;;;;;;11.30;57.38;101673.81;4469193;32;35167;-51
2021/11/10 08:38:35;;;;;;;32.53;23.15;;;;;;;11.18;57.71;101678.72;4469375;32;33389;-50
2021/11/10 08:41:03;;;;;;;32.85;22.67;;;;;;;11.28;57.44;101676.41;4469362;32;33658;-52
2021/11/10 08:43:30;;;;;;;35.05;24.00;;;;;;;11.48;57.24;101666.50;4467737;32;34743;-53
2021/11/10 08:45:58;;;;;;;34.22;24.42;;;;;;;11.31;57.23;101665.19;4467948;32;34359;-53
2021/11/10 08:48:27;;;;;;;34.40;23.87;;;;;;;11.35;57.20;101662.69;4468876;32;33834;-54
2021/11/10 08:50:56;;;;;;;36.67;23.73;;;;;;;11.50;56.98;101659.59;4469326;32;34043;-54
2021/11/10 08:53:24;;;;;;;37.53;23.10;;;;;;;11.47;56.85;101667.34;4468907;32;34678;-52
2021/11/10 08:55:54;;;;;;;33.45;22.87;;;;;;;11.22;57.65;101673.63;4467685;32;34609;-50
2021/11/10 08:58:22;;;;;;;33.75;23.35;;;;;;;11.55;56.57;101661.47;4468621;32;34156;-50
2021/11/10 09:00:52;;;;;;;31.37;22.25;;;;;;;11.64;56.39;101666.03;4468822;32;33768;-50
2021/11/10 09:03:22;;;;;;;30.83;22.20;;;;;;;11.65;56.53;101673.00;4468919;32;34599;-52
2021/11/10 09:05:50;;;;;;;35.13;22.23;;;;;;;11.67;56.26;101667.84;4468965;32;35251;-51
2021/11/10 09:08:22;;;;;;;32.35;22.45;;;;;;;11.68;56.21;101669.62;4467573;32;34288;-50
2021/11/10 09:10:49;;;;;;;37.73;25.10;;;;;;;11.78;55.62;101675.13;4468664;32;34562;-52
2021/11/10 09:13:18;;;;;;;33.30;23.10;;;;;;;11.90;55.23;101670.19;4467340;32;35751;-52
2021/11/10 09:15:45;;;;;;;35.55;24.20;;;;;;;11.85;55.22;101676.12;4466971;32;35020;-49
2021/11/10 09:18:13;;;;;;;34.22;23.73;;;;;;;11.75;55.20;101676.75;4466758;32;33843;-51
2021/11/10 09:20:42;;;;;;;36.42;23.40;;;;;;;11.58;55.41;101668.47;4467583;32;33951;-49
2021/11/10 09:23:12;;;;;;;35.08;23.62;;;;;;;11.71;55.18;101667.09;4465800;32;34329;-48
2021/11/10 09:25:41;;;;;;;34.55;23.62;;;;;;;11.87;54.82;101666.63;4466349;32;34356;-52
2021/11/10 09:28:13;;;;;;;35.85;24.67;;;;;;;11.86;54.67;101657.06;4468011;32;33625;-53
2021/11/10 09:30:43;;;;;;;33.88;23.75;;;;;;;11.85;54.75;101655.28;4468004;32;33943;-52
2021/11/10 09:33:14;;;;;;;33.50;23.70;;;;;;;11.91;54.89;101656.31;4466768;32;34822;-51
2021/11/10 09:35:42;;;;;;;35.97;25.47;;;;;;;11.88;54.71;101664.06;4468163;32;34443;-51
2021/11/10 09:38:09;;;;;;;36.10;26.02;;;;;;;12.22;53.61;101661.38;4467848;32;33542;-50
2021/11/10 09:40:44;;;;;;;35.88;25.33;;;;;;;12.14;53.88;101649.91;4467905;32;34709;-51
2021/11/10 09:43:13;;;;;;;34.70;25.08;;;;;;;12.01;53.98;101657.41;4468069;32;34888;-53
2021/11/10 09:45:41;;;;;;;37.05;25.45;;;;;;;12.11;53.72;101657.66;4468029;32;34251;-53
2021/11/10 09:48:08;;;;;;;37.50;24.70;;;;;;;12.13;53.03;101650.75;4468112;32;33950;-51
2021/11/10 09:50:44;;;;;;;35.10;25.27;;;;;;;12.09;53.81;101651.53;4467962;32;33899;-51
2021/11/10 09:53:13;;;;;;;35.10;25.37;;;;;;;12.21;53.70;101653.53;4467679;32;34726;-53
2021/11/10 09:55:40;;;;;;;40.33;26.87;;;;;;;12.21;53.58;101656.13;4467726;32;36805;-50
2021/11/10 09:58:08;;;;;;;37.13;26.10;;;;;;;12.28;53.65;101647.59;4467552;32;33342;-53
2021/11/10 10:00:54;;;;;;;38.38;26.50;;;;;;;12.19;53.85;101645.66;4467024;32;33883;-52
2021/11/10 10:03:22;;;;;;;38.95;26.40;;;;;;;12.29;53.54;101644.13;4467509;32;34737;-52
2021/11/10 10:05:52;;;;;;;33.95;24.35;;;;;;;12.16;53.55;101643.00;4467537;32;34620;-50
2021/11/10 10:08:20;;;;;;;38.15;26.27;;;;;;;12.03;54.04;101646.16;4467868;32;34375;-52
2021/11/10 10:10:49;;;;;;;34.88;24.12;;;;;;;12.20;53.46;101643.94;4467537;32;33780;-50
2021/11/10 10:13:17;;;;;;;36.88;25.10;;;;;;;12.19;53.49;101637.81;4467788;32;35695;-50
2021/11/10 10:15:47;;;;;;;43.13;28.08;;;;;;;12.11;53.64;101633.28;4467689;32;34237;-52
2021/11/10 10:18:24;;;;;;;32.25;23.92;;;;;;;12.09;53.60;101638.50;4467695;32;34830;-50
2021/11/10 10:20:57;;;;;;;41.45;26.87;;;;;;;12.11;52.85;101635.91;4467754;32;34564;-52
2021/11/10 10:23:29;;;;;;;35.55;25.12;;;;;;;11.81;54.16;101643.03;4467721;32;34672;-51
2021/11/10 10:26:03;;;;;;;40.42;26.40;;;;;;;11.76;53.91;101644.63;4466473;32;34442;-52
2021/11/10 10:28:33;;;;;;;37.05;26.08;;;;;;;11.46;54.34;101635.19;4467184;32;33754;-52
2021/11/10 10:31:04;;;;;;;40.92;26.92;;;;;;;11.44;54.73;101636.87;4466345;32;34786;-51
2021/11/10 10:33:37;;;;;;;38.53;25.25;;;;;;;11.45;55.10;101628.22;4467788;32;35606;-51
2021/11/10 10:36:11;;;;;;;38.13;25.42;;;;;;;11.50;55.04;101626.59;4466758;32;35071;-49
2021/11/10 10:38:47;;;;;;;42.10;26.67;;;;;;;11.80;54.05;101623.00;4466448;32;33642;-52
2021/11/10 10:41:17;;;;;;;34.13;23.80;;;;;;;11.64;54.48;101619.13;4468421;32;34653;-50
2021/11/10 10:43:52;;;;;;;34.88;23.52;;;;;;;11.76;54.04;101622.06;4469518;32;35728;-52
2021/11/10 10:46:25;;;;;;;38.15;24.23;;;;;;;11.59;54.45;101615.53;4470110;32;34934;-51
2021/11/10 10:48:52;;;;;;;38.08;24.25;;;;;;;11.40;55.03;101616.81;4469763;32;34253;-50
2021/11/10 10:51:20;;;;;;;32.63;22.77;;;;;;;11.61;54.53;101612.94;4467999;32;33868;-50
2021/11/10 10:53:51;;;;;;;36.38;24.25;;;;;;;11.67;54.17;101618.31;4469049;32;34268;-51
2021/11/10 10:56:19;;;;;;;33.40;23.27;;;;;;;11.58;54.33;101614.62;4469360;32;34755;-50
2021/11/10 10:58:56;;;;;;;36.47;24.33;;;;;;;11.36;55.09;101617.53;4469353;32;34182;-54
2021/11/10 11:01:30;;;;;;;38.17;24.00;;;;;;;11.41;54.90;101610.72;4469554;32;33887;-52
2021/11/10 11:04:03;;;;;;;40.35;25.02;;;;;;;11.17;55.85;101610.09;4469535;32;35070;-54
2021/11/10 11:06:40;;;;;;;34.05;21.90;;;;;;;11.46;55.21;101603.91;4469611;32;35223;-52
2021/11/10 11:09:27;;;;;;;30.83;20.80;;;;;;;11.54;54.83;101612.81;4469766;32;33127;-52
2021/11/10 11:12:08;;;;;;;31.37;21.52;;;;;;;11.40;54.72;101611.59;4469475;32;34159;-50
2021/11/10 11:14:45;;;;;;;30.83;21.25;;;;;;;11.33;54.79;101601.88;4469369;32;35611;-51
2021/11/10 11:17:40;;;;;;;32.65;20.83;;;;;;;11.41;55.02;101599.47;4468164;32;34289;-51
2021/11/10 11:20:13;;;;;;;31.58;20.90;;;;;;;11.28;55.30;101602.56;4469391;32;34136;-52
2021/11/10 11:22:41;;;;;;;32.58;21.27;;;;;;;11.67;54.75;101598.31;4469405;32;33965;-51